Time;durP1;ratioP1;P1;durP2;ratioP2;P2;SDS_P1;SDS_P2;PMS_P1;PMS_P2;Temp;Humidity;BMP_temperature;BMP_pressure;BME280_temperature;BME280_humidity;BME280_pressure;Samples;Min_cycle;Max_cycle;Signal;HPM_P1;HPM_P2
2022/06/06 00:00:47;;;;;;;2.65;1.07;;;;;;;13.15;100.00;99833.90;1736668;80;22017;-55
2022/06/06 00:03:16;;;;;;;7.58;0.95;;;;;;;13.13;100.00;99837.12;1733472;81;21113;-55
2022/06/06 00:05:44;;;;;;;4.45;0.95;;;;;;;13.12;100.00;99841.66;1735937;80;21060;-55
2022/06/06 00:08:12;;;;;;;1.98;1.00;;;;;;;13.11;100.00;99840.39;1740107;80;21073;-55
2022/06/06 00:10:41;;;;;;;0.72;0.70;;;;;;;13.11;100.00;99843.09;1736979;80;21079;-55
2022/06/06 00:13:09;;;;;;;1.10;1.00;;;;;;;13.08;100.00;99833.83;1694168;82;21155;-55
2022/06/06 00:15:35;;;;;;;0.95;0.90;;;;;;;13.09;100.00;99842.33;1683642;83;21591;-54
2022/06/06 00:18:03;;;;;;;3.47;0.90;;;;;;;13.09;100.00;99838.28;1689662;83;21039;-55
2022/06/06 00:20:30;;;;;;;2.17;1.10;;;;;;;13.08;100.00;99843.29;1686169;83;21061;-55
2022/06/06 00:22:58;;;;;;;3.55;1.05;;;;;;;13.10;100.00;99847.63;1688170;83;21063;-55
2022/06/06 00:25:25;;;;;;;2.75;1.10;;;;;;;13.10;100.00;99842.73;1687050;83;21121;-55
2022/06/06 00:27:52;;;;;;;1.15;1.05;;;;;;;13.08;100.00;99843.29;1686807;83;21030;-55
2022/06/06 00:30:19;;;;;;;2.20;1.00;;;;;;;13.06;100.00;99842.50;1678268;83;21072;-55
2022/06/06 00:35:32;;;;;;;1.65;0.90;;;;;;;13.02;100.00;99836.38;1664573;84;21509;-55
2022/06/06 00:37:58;;;;;;;1.40;1.10;;;;;;;13.00;100.00;99836.09;1671055;84;22197;-54
2022/06/06 00:40:26;;;;;;;3.70;1.00;;;;;;;12.98;100.00;99836.66;1624511;84;21085;-54
2022/06/06 00:42:53;;;;;;;3.52;0.93;;;;;;;12.96;100.00;99835.86;1725204;81;21136;-55
2022/06/06 00:45:35;;;;;;;1.07;0.98;;;;;;;12.94;100.00;99837.77;1727205;81;21056;-55
2022/06/06 00:48:19;;;;;;;1.32;1.02;;;;;;;12.93;100.00;99839.60;1722825;81;21076;-55
2022/06/06 00:51:07;;;;;;;1.62;0.88;;;;;;;12.93;100.00;99838.77;1728703;81;21151;-55
2022/06/06 00:53:51;;;;;;;1.10;0.90;;;;;;;12.92;100.00;99838.36;1728467;81;21489;-54
2022/06/06 00:56:26;;;;;;;1.20;1.10;;;;;;;12.92;100.00;99841.06;1725900;81;21111;-54
2022/06/06 00:58:57;;;;;;;1.15;1.05;;;;;;;12.99;100.00;99839.28;1729206;81;21536;-55
2022/06/06 01:01:23;;;;;;;1.45;1.10;;;;;;;13.00;100.00;99847.78;1726286;81;21037;-55
2022/06/06 01:03:51;;;;;;;1.42;1.15;;;;;;;13.02;100.00;99847.66;1716842;81;21556;-55
2022/06/06 01:06:19;;;;;;;2.17;1.65;;;;;;;13.02;100.00;99844.96;1720770;81;21570;-55
2022/06/06 01:08:47;;;;;;;1.20;1.10;;;;;;;12.98;100.00;99844.28;1724913;81;21056;-55
2022/06/06 01:11:14;;;;;;;1.60;1.27;;;;;;;12.83;100.00;99847.86;1724474;81;21130;-54
2022/06/06 01:13:41;;;;;;;1.30;0.85;;;;;;;12.77;100.00;99844.99;1725909;81;21536;-54
2022/06/06 01:16:22;;;;;;;3.95;1.35;;;;;;;12.72;100.00;99845.74;1728558;81;22237;-54
2022/06/06 01:28:49;;;;;;;1.45;1.10;;;;;;;12.69;100.00;99847.25;1602552;81;985071;-54
2022/06/06 02:52:25;;;;;;;2.44;1.04;;;;;;;12.69;100.00;99847.25;1487269;80;985175;-52
2022/06/06 02:55:22;;;;;;;2.54;1.50;;;;;;;12.69;100.00;99847.25;1496470;80;984851;-53
2022/06/06 02:57:51;;;;;;;3.70;1.80;;;;;;;12.69;100.00;99847.25;1740522;80;21911;-52
2022/06/06 03:00:21;;;;;;;3.55;1.50;;;;;;;11.68;100.00;99877.83;1746525;80;20949;-54
2022/06/06 03:02:49;;;;;;;4.40;1.65;;;;;;;11.69;100.00;99875.53;1737498;80;21143;-53
2022/06/06 03:05:17;;;;;;;1.52;1.40;;;;;;;11.73;100.00;99878.02;1742803;80;21097;-51
2022/06/06 03:08:11;;;;;;;3.52;1.47;;;;;;;11.79;100.00;99874.62;1738694;80;21103;-53
2022/06/06 03:11:11;;;;;;;2.70;1.90;;;;;;;11.85;100.00;99868.91;1732455;80;21280;-56
2022/06/06 03:14:15;;;;;;;6.30;1.60;;;;;;;11.93;100.00;99878.34;1741360;80;21117;-53
2022/06/06 03:23:12;;;;;;;2.77;2.02;;;;;;;12.28;100.00;99879.20;1709237;82;21076;-56
2022/06/06 03:26:00;;;;;;;3.22;1.40;;;;;;;12.40;100.00;99873.64;1696741;82;21189;-51
2022/06/06 03:28:41;;;;;;;1.90;1.70;;;;;;;12.51;100.00;99876.61;1665838;82;21085;-55
2022/06/06 03:31:35;;;;;;;2.50;1.72;;;;;;;12.61;100.00;99878.34;1690172;83;21949;-52
2022/06/06 03:34:13;;;;;;;3.95;2.08;;;;;;;12.70;100.00;99880.05;1673130;83;21576;-54
2022/06/06 03:37:00;;;;;;;2.40;2.30;;;;;;;12.82;100.00;99877.17;1669185;84;21063;-54
2022/06/06 04:12:01;;;;;;;2.90;1.85;;;;;;;12.95;100.00;99879.57;1527163;83;975205;-54
2022/06/06 04:14:57;;;;;;;4.70;4.10;;;;;;;12.95;100.00;99879.57;1678161;83;21501;-53
2022/06/06 04:20:24;;;;;;;4.33;3.43;;;;;;;15.24;100.00;99867.91;1804422;75;975188;-53
2022/06/06 04:30:25;;;;;;;8.03;4.70;;;;;;;15.21;100.00;99870.36;1609893;76;984998;-51
2022/06/06 04:43:55;;;;;;;4.72;4.28;;;;;;;15.21;100.00;99870.36;1609103;75;984705;-53
2022/06/06 04:56:16;;;;;;;5.17;2.55;;;;;;;15.21;100.00;99870.36;1669368;76;975418;-57
2022/06/06 05:01:12;;;;;;;1.60;1.50;;;;;;;15.21;100.00;99870.36;1669591;76;984774;-56
2022/06/06 05:04:36;;;;;;;3.52;1.72;;;;;;;15.21;100.00;99870.36;1670868;77;985214;-57
2022/06/06 05:09:18;;;;;;;1.70;1.25;;;;;;;15.21;100.00;99870.36;1820206;77;20997;-55
2022/06/06 05:12:22;;;;;;;5.75;1.50;;;;;;;15.21;100.00;99870.36;1810390;77;21022;-54
2022/06/06 05:16:21;;;;;;;1.80;0.87;;;;;;;17.64;100.00;99875.41;1709685;77;975384;-55
2022/06/06 05:19:37;;;;;;;1.40;0.80;;;;;;;17.64;100.00;99875.41;1558321;77;975389;-55
2022/06/06 05:23:38;;;;;;;;;;;;;;;17.64;100.00;99875.41;1635655;76;975483;-54
2022/06/06 05:26:36;;;;;;;0.70;0.60;;;;;;;17.64;100.00;99875.41;1681833;76;975663;-56
2022/06/06 05:29:37;;;;;;;0.60;0.60;;;;;;;18.25;100.00;99885.21;1809470;76;975415;-53
2022/06/06 05:32:35;;;;;;;0.68;0.60;;;;;;;18.25;100.00;99887.94;1810631;77;21072;-56
2022/06/06 05:35:24;;;;;;;0.57;0.50;;;;;;;18.33;100.00;99892.78;1815468;77;21527;-54
2022/06/06 05:40:13;;;;;;;1.28;0.44;;;;;;;18.40;100.00;99896.77;1631056;77;985102;-57
2022/06/06 05:43:44;;;;;;;1.77;0.40;;;;;;;18.40;100.00;99896.77;1562005;77;985143;-57
2022/06/06 06:00:16;;;;;;;0.88;0.42;;;;;;;18.40;100.00;99896.77;1595494;77;984779;-58
2022/06/06 06:11:33;;;;;;;0.55;0.42;;;;;;;18.40;100.00;99896.77;1589511;80;975596;-54
2022/06/06 06:19:47;;;;;;;0.55;0.35;;;;;;;18.40;100.00;99896.77;1501804;80;975476;-57
2022/06/06 06:22:13;;;;;;;0.40;0.30;;;;;;;18.40;100.00;99896.77;1582609;80;975437;-55
2022/06/06 06:24:42;;;;;;;0.70;0.30;;;;;;;19.93;100.00;99909.30;1740634;80;21015;-55
2022/06/06 06:27:11;;;;;;;0.60;0.40;;;;;;;19.92;100.00;99917.13;1738120;80;21115;-56
2022/06/06 06:29:39;;;;;;;0.40;0.30;;;;;;;19.96;100.00;99915.88;1741112;80;21078;-58
2022/06/06 06:33:13;;;;;;;0.40;0.30;;;;;;;20.02;100.00;99922.19;1588298;80;975432;-54
2022/06/06 06:35:58;;;;;;;2.15;0.28;;;;;;;20.02;100.00;99922.19;1705327;80;21300;-59
2022/06/06 06:40:58;;;;;;;;;;;;;;;20.28;100.00;99921.34;1608425;80;975541;-56
2022/06/06 06:46:57;;;;;;;;;;;;;;;20.28;100.00;99921.34;1496520;80;975488;-55
2022/06/06 06:54:42;;;;;;;5.42;0.50;;;;;;;20.28;100.00;99921.34;1594323;82;985062;-57
2022/06/06 06:57:52;;;;;;;3.12;0.30;;;;;;;20.28;100.00;99921.34;1563647;81;975408;-57
2022/06/06 07:11:15;;;;;;;1.65;0.20;;;;;;;20.56;100.00;99921.23;1479331;83;985011;-57
2022/06/06 07:14:25;;;;;;;1.60;0.30;;;;;;;20.56;100.00;99921.23;1475977;83;975430;-55
2022/06/06 07:16:56;;;;;;;1.63;0.30;;;;;;;20.56;100.00;99921.23;1580487;83;975400;-56
2022/06/06 07:19:31;;;;;;;0.50;0.30;;;;;;;20.80;100.00;99938.73;1592413;82;975551;-55
2022/06/06 07:21:59;;;;;;;0.60;0.30;;;;;;;20.80;100.00;99934.13;1555725;83;977952;-57
2022/06/06 07:26:01;;;;;;;0.42;0.30;;;;;;;20.82;100.00;99930.77;1523039;83;985211;-56
2022/06/06 07:28:31;;;;;;;0.40;0.40;;;;;;;20.82;100.00;99930.77;1472707;83;975419;-56
2022/06/06 07:31:21;;;;;;;0.93;0.30;;;;;;;20.82;100.00;99930.77;1526553;83;985157;-58
2022/06/06 07:37:31;;;;;;;0.70;0.50;;;;;;;20.82;100.00;99930.77;1461437;83;985111;-55
2022/06/06 07:41:40;;;;;;;0.50;0.30;;;;;;;20.82;100.00;99930.77;1401085;85;984646;-57
2022/06/06 07:44:18;;;;;;;0.30;0.30;;;;;;;20.82;100.00;99930.77;1536457;83;975446;-55
2022/06/06 07:47:02;;;;;;;0.47;0.30;;;;;;;21.15;100.00;99935.99;1676777;83;22368;-57
2022/06/06 07:49:55;;;;;;;1.75;0.30;;;;;;;21.17;100.00;99942.73;1667203;83;21157;-56
2022/06/06 07:52:39;;;;;;;1.75;0.25;;;;;;;21.22;100.00;99939.08;1674897;83;21077;-56
2022/06/06 07:55:24;;;;;;;2.83;0.42;;;;;;;21.25;100.00;99944.79;1649177;83;21111;-54
2022/06/06 07:58:09;;;;;;;2.12;0.30;;;;;;;21.39;100.00;99956.73;1663311;83;838798;-56
2022/06/06 08:03:10;;;;;;;0.43;0.40;;;;;;;21.44;100.00;99957.17;1603513;85;985038;-56
2022/06/06 08:06:09;;;;;;;0.40;0.30;;;;;;;21.44;100.00;99957.17;1598827;83;975567;-57
2022/06/06 08:09:04;;;;;;;1.75;0.40;;;;;;;21.53;100.00;99944.89;1619843;84;984746;-55
2022/06/06 08:19:15;;;;;;;0.70;0.20;;;;;;;21.53;100.00;99944.89;1456950;83;985071;-56
2022/06/06 08:21:47;;;;;;;0.85;0.40;;;;;;;21.53;100.00;99944.89;1599442;83;975407;-57
2022/06/06 08:24:28;;;;;;;2.10;0.40;;;;;;;21.83;100.00;99948.09;1680889;83;23208;-55
2022/06/06 08:26:55;;;;;;;0.33;0.30;;;;;;;21.80;100.00;99943.38;1679130;83;21051;-55
2022/06/06 08:29:22;;;;;;;1.95;0.30;;;;;;;21.83;100.00;99939.87;1680287;83;21075;-60
2022/06/06 08:31:49;;;;;;;0.35;0.30;;;;;;;21.89;100.00;99931.58;1673734;83;21084;-54
2022/06/06 08:34:16;;;;;;;0.75;0.30;;;;;;;22.02;100.00;99934.09;1676806;83;21120;-60
2022/06/06 08:37:37;;;;;;;0.28;0.28;;;;;;;22.04;100.00;99926.08;1673663;83;21205;-56
2022/06/06 08:40:54;;;;;;;0.30;0.30;;;;;;;22.08;100.00;99925.30;1674633;83;20997;-54
2022/06/06 08:43:26;;;;;;;0.78;0.30;;;;;;;22.03;100.00;99918.02;1679390;83;21218;-56
2022/06/06 08:46:01;;;;;;;0.85;0.28;;;;;;;22.04;100.00;99920.59;1681649;83;21558;-56
2022/06/06 08:48:48;;;;;;;2.17;0.20;;;;;;;22.09;100.00;99914.70;1677420;83;21557;-58
2022/06/06 08:51:51;;;;;;;0.30;0.30;;;;;;;22.15;100.00;99919.59;1675368;84;22825;-56
2022/06/06 08:55:04;;;;;;;1.07;0.30;;;;;;;22.19;100.00;99920.55;1674387;83;21124;-56
2022/06/06 08:57:55;;;;;;;2.90;0.30;;;;;;;22.22;100.00;99913.89;1678861;83;21136;-59
2022/06/06 09:00:55;;;;;;;1.65;0.20;;;;;;;22.24;100.00;99918.23;1678345;83;21108;-56
2022/06/06 09:03:45;;;;;;;0.53;0.23;;;;;;;22.31;100.00;99916.28;1675833;83;21105;-59
2022/06/06 09:06:52;;;;;;;0.37;0.20;;;;;;;22.38;100.00;99915.55;1653611;83;21148;-57
2022/06/06 09:09:36;;;;;;;1.37;0.30;;;;;;;22.43;100.00;99917.87;1680486;83;21493;-55
2022/06/06 09:12:46;;;;;;;1.32;0.30;;;;;;;22.46;100.00;99910.20;1678963;83;21116;-60
2022/06/06 09:15:30;;;;;;;1.00;0.20;;;;;;;22.53;100.00;99918.23;1675039;83;21142;-56
2022/06/06 09:18:37;;;;;;;0.40;0.30;;;;;;;22.56;100.00;99908.31;1706914;82;21513;-57
2022/06/06 09:21:45;;;;;;;0.20;0.20;;;;;;;22.46;100.00;99911.57;1707973;82;21171;-59
2022/06/06 09:24:31;;;;;;;0.90;0.30;;;;;;;22.48;100.00;99910.06;1716686;82;21125;-56
2022/06/06 09:27:27;;;;;;;0.93;0.30;;;;;;;22.53;100.00;99920.11;1706937;82;21079;-57
2022/06/06 09:30:32;;;;;;;1.90;0.30;;;;;;;22.56;100.00;99911.56;1693516;82;984874;-56
2022/06/06 09:34:25;;;;;;;0.30;0.30;;;;;;;22.56;100.00;99911.56;1497095;82;984489;-57
2022/06/06 09:37:29;;;;;;;0.30;0.20;;;;;;;22.56;100.00;99911.56;1491403;82;975624;-57
2022/06/06 09:40:58;;;;;;;0.30;0.30;;;;;;;22.82;100.00;99907.73;1508604;82;975350;-60
2022/06/06 09:44:59;;;;;;;0.20;0.20;;;;;;;22.82;100.00;99907.73;1473373;82;975246;-57
2022/06/06 09:48:17;;;;;;;0.28;0.25;;;;;;;-144.06;100.00;116433.64;1516637;82;985126;-55
2022/06/06 09:51:09;;;;;;;2.53;0.20;;;;;;;22.82;100.00;99907.73;1516479;82;985012;-53
2022/06/06 10:01:18;;;;;;;1.17;0.40;;;;;;;22.82;100.00;99907.73;1496688;82;978016;-55
2022/06/06 10:04:08;;;;;;;0.93;0.30;;;;;;;23.59;100.00;99904.71;1476565;82;985219;-61
2022/06/06 10:07:24;;;;;;;0.30;0.28;;;;;;;23.54;100.00;99904.31;1484823;82;984727;-56
2022/06/06 10:10:08;;;;;;;0.33;0.30;;;;;;;23.54;100.00;99904.31;1520619;82;975386;-54
2022/06/06 10:14:08;;;;;;;0.30;0.30;;;;;;;23.54;100.00;99904.31;1518974;82;975457;-59
2022/06/06 10:16:52;;;;;;;0.47;0.30;;;;;;;23.54;100.00;99904.31;1565626;82;975418;-59
2022/06/06 10:22:05;;;;;;;2.53;0.30;;;;;;;23.08;100.00;99901.08;1498796;82;985050;-56
2022/06/06 10:28:38;;;;;;;0.74;0.28;;;;;;;23.08;100.00;99901.08;1466596;82;985182;-58
2022/06/06 10:32:34;;;;;;;2.62;0.20;;;;;;;23.08;100.00;99901.08;1448924;83;985229;-60
2022/06/06 10:35:39;;;;;;;0.72;0.20;;;;;;;23.08;100.00;99901.08;1474194;83;975566;-60
2022/06/06 10:38:44;;;;;;;0.30;0.30;;;;;;;23.50;100.00;99886.39;1487646;82;975422;-58
2022/06/06 10:42:11;;;;;;;3.48;0.30;;;;;;;23.50;100.00;99886.39;1468319;82;977169;-59
2022/06/06 10:44:54;;;;;;;0.33;0.20;;;;;;;23.50;100.00;99886.39;1476578;82;977691;-61
2022/06/06 10:48:06;;;;;;;0.50;0.50;;;;;;;23.70;100.00;99882.52;1627583;81;21073;-62
2022/06/06 10:54:17;;;;;;;0.30;0.30;;;;;;;23.55;100.00;99879.95;1727152;81;21037;-59
2022/06/06 10:57:05;;;;;;;1.67;0.30;;;;;;;23.40;100.00;99875.42;1724747;81;21133;-61
2022/06/06 10:59:43;;;;;;;0.45;0.23;;;;;;;23.32;100.00;99870.69;1719881;81;21104;-61
2022/06/06 11:02:27;;;;;;;0.40;0.30;;;;;;;23.33;100.00;99873.80;1716411;81;21198;-60
2022/06/06 11:05:16;;;;;;;;;;;;;;;23.37;100.00;99865.63;1722321;81;21206;-60
2022/06/06 11:08:07;;;;;;;0.40;0.30;;;;;;;23.45;100.00;99863.99;1717738;81;20986;-60
2022/06/06 11:10:45;;;;;;;4.03;0.40;;;;;;;23.51;100.00;99867.52;1670495;84;21148;-61
2022/06/06 11:13:57;;;;;;;0.20;0.20;;;;;;;23.53;100.00;99865.49;1724924;81;21379;-60
2022/06/06 11:33:14;;;;;;;1.50;0.30;;;;;;;23.60;100.00;99861.11;1535961;81;984924;-60
